CEB1833 RPLL-RPVP
Flight info
| Callsign | CEB1833 |
|---|---|
| Flight time | 0h 59m |
| Altitude | 36000 |
| Route | BUCAL2V BUCAL M646 NOMYO NOMYO2W |
| Aircraft | A20N/M-SDE2E3FGHIRWXY/LB1 |
Departure
| Time | 2026-04-22 10:43 |
|---|---|
| Airport | Ninoy Aquino International Airport (RPLL) |
Arrival
| Time | 2026-04-22 11:43 |
|---|---|
| Airport | Puerto Princesa International Airport / PAF Antonio Bautista Air Base (RPVP) |
| Time | Latitude | Longitude | Altitude | Speed | Heading |
|---|---|---|---|---|---|
| 2026-04-22 10:19 | 14.52417 | 121.00706 | 83 ft | 0 kts | 44° |
| 2026-04-22 10:33 | 14.52409 | 121.00698 | 84 ft | 2 kts | 44° |
| 2026-04-22 10:33 | 14.52398 | 121.00687 | 84 ft | 2 kts | 45° |
| 2026-04-22 10:34 | 14.52387 | 121.00677 | 84 ft | 2 kts | 44° |
| 2026-04-22 10:34 | 14.52380 | 121.00669 | 84 ft | 0 kts | 44° |
| 2026-04-22 10:34 | 14.52369 | 121.00661 | 84 ft | 2 kts | 8° |
| 2026-04-22 10:34 | 14.52354 | 121.00663 | 84 ft | 2 kts | 330° |
| 2026-04-22 10:35 | 14.52347 | 121.00668 | 84 ft | 1 kts | 308° |
| 2026-04-22 10:35 | 14.52344 | 121.00671 | 84 ft | 0 kts | 314° |
| 2026-04-22 10:38 | 14.52346 | 121.00669 | 84 ft | 1 kts | 314° |
| 2026-04-22 10:38 | 14.52362 | 121.00653 | 84 ft | 5 kts | 315° |
| 2026-04-22 10:38 | 14.52390 | 121.00624 | 83 ft | 6 kts | 315° |
| 2026-04-22 10:39 | 14.52422 | 121.00590 | 83 ft | 6 kts | 315° |
| 2026-04-22 10:39 | 14.52458 | 121.00553 | 83 ft | 7 kts | 315° |
| 2026-04-22 10:39 | 14.52494 | 121.00508 | 83 ft | 8 kts | 289° |
| 2026-04-22 10:39 | 14.52479 | 121.00459 | 84 ft | 4 kts | 226° |
| 2026-04-22 10:40 | 14.52464 | 121.00444 | 84 ft | 1 kts | 225° |
| 2026-04-22 10:40 | 14.52464 | 121.00443 | 84 ft | 0 kts | 225° |
| 2026-04-22 10:40 | 14.52456 | 121.00435 | 83 ft | 2 kts | 225° |
| 2026-04-22 10:41 | 14.52440 | 121.00418 | 84 ft | 3 kts | 225° |
| 2026-04-22 10:41 | 14.52421 | 121.00399 | 83 ft | 4 kts | 218° |
| 2026-04-22 10:41 | 14.52386 | 121.00392 | 83 ft | 7 kts | 169° |
| 2026-04-22 10:41 | 14.52343 | 121.00426 | 84 ft | 8 kts | 135° |
| 2026-04-22 10:42 | 14.52305 | 121.00466 | 83 ft | 3 kts | 135° |
| 2026-04-22 10:42 | 14.52304 | 121.00468 | 83 ft | 0 kts | 135° |
| 2026-04-22 10:42 | 14.52295 | 121.00477 | 84 ft | 14 kts | 135° |
| 2026-04-22 10:43 | 14.52030 | 121.00751 | 84 ft | 90 kts | 135° |
| 2026-04-22 10:43 | 14.51427 | 121.01372 | 87 ft | 149 kts | 134° |
| 2026-04-22 10:43 | 14.50684 | 121.02125 | 628 ft | 150 kts | 134° |
| 2026-04-22 10:43 | 14.49942 | 121.02889 | 1232 ft | 153 kts | 134° |
| 2026-04-22 10:44 | 14.49202 | 121.03679 | 1846 ft | 154 kts | 135° |
| 2026-04-22 10:44 | 14.48428 | 121.04495 | 2166 ft | 167 kts | 136° |
| 2026-04-22 10:44 | 14.47562 | 121.05395 | 2487 ft | 182 kts | 135° |
| 2026-04-22 10:44 | 14.46641 | 121.06355 | 2805 ft | 198 kts | 135° |
| 2026-04-22 10:45 | 14.45589 | 121.07382 | 3091 ft | 217 kts | 146° |
| 2026-04-22 10:45 | 14.44074 | 121.07820 | 3321 ft | 241 kts | 186° |
| 2026-04-22 10:45 | 14.42452 | 121.07206 | 3730 ft | 259 kts | 210° |
| 2026-04-22 10:45 | 14.40916 | 121.06171 | 4359 ft | 267 kts | 213° |
| 2026-04-22 10:46 | 14.39358 | 121.05096 | 5132 ft | 269 kts | 212° |
| 2026-04-22 10:46 | 14.37785 | 121.04066 | 5915 ft | 271 kts | 212° |
| 2026-04-22 10:46 | 14.36183 | 121.03055 | 6688 ft | 273 kts | 211° |
| 2026-04-22 10:46 | 14.34543 | 121.02044 | 7444 ft | 275 kts | 211° |
| 2026-04-22 10:47 | 14.32868 | 121.01035 | 8180 ft | 279 kts | 211° |
| 2026-04-22 10:47 | 14.31185 | 121.00027 | 8893 ft | 282 kts | 211° |
| 2026-04-22 10:47 | 14.29485 | 120.99015 | 9588 ft | 286 kts | 211° |
| 2026-04-22 10:47 | 14.27745 | 120.97984 | 10242 ft | 291 kts | 212° |
| 2026-04-22 10:48 | 14.25932 | 120.96910 | 10600 ft | 307 kts | 212° |
| 2026-04-22 10:48 | 14.24032 | 120.95786 | 10916 ft | 323 kts | 212° |
| 2026-04-22 10:48 | 14.22041 | 120.94612 | 11441 ft | 332 kts | 212° |
| 2026-04-22 10:48 | 14.20031 | 120.93430 | 12088 ft | 335 kts | 212° |
| 2026-04-22 10:49 | 14.17984 | 120.92226 | 12722 ft | 340 kts | 212° |
| 2026-04-22 10:49 | 14.15927 | 120.91016 | 13349 ft | 344 kts | 212° |
| 2026-04-22 10:49 | 14.13808 | 120.89771 | 13987 ft | 347 kts | 211° |
| 2026-04-22 10:49 | 14.11704 | 120.88535 | 14722 ft | 347 kts | 211° |
| 2026-04-22 10:50 | 14.09608 | 120.87303 | 15386 ft | 349 kts | 211° |
| 2026-04-22 10:50 | 14.07482 | 120.86054 | 15985 ft | 353 kts | 211° |
| 2026-04-22 10:50 | 14.05327 | 120.84788 | 16579 ft | 357 kts | 211° |
| 2026-04-22 10:50 | 14.03136 | 120.83501 | 17172 ft | 361 kts | 211° |
| 2026-04-22 10:51 | 14.00963 | 120.82226 | 17745 ft | 364 kts | 211° |
| 2026-04-22 10:51 | 13.98740 | 120.80921 | 18317 ft | 368 kts | 211° |
| 2026-04-22 10:51 | 13.96489 | 120.79600 | 18880 ft | 371 kts | 211° |
| 2026-04-22 10:51 | 13.94231 | 120.78276 | 19433 ft | 375 kts | 211° |
| 2026-04-22 10:52 | 13.91952 | 120.76939 | 19986 ft | 378 kts | 211° |
| 2026-04-22 10:52 | 13.89639 | 120.75583 | 20542 ft | 381 kts | 211° |
| 2026-04-22 10:52 | 13.87347 | 120.74246 | 21078 ft | 384 kts | 210° |
| 2026-04-22 10:52 | 13.84997 | 120.72877 | 21619 ft | 388 kts | 210° |
| 2026-04-22 10:53 | 13.82645 | 120.71505 | 22146 ft | 391 kts | 210° |
| 2026-04-22 10:53 | 13.80240 | 120.70099 | 22671 ft | 394 kts | 210° |
| 2026-04-22 10:53 | 13.77856 | 120.68703 | 23185 ft | 397 kts | 210° |
| 2026-04-22 10:53 | 13.75429 | 120.67282 | 23693 ft | 400 kts | 210° |
| 2026-04-22 10:54 | 13.73000 | 120.65859 | 24184 ft | 403 kts | 210° |
| 2026-04-22 10:54 | 13.70546 | 120.64421 | 24659 ft | 406 kts | 210° |
| 2026-04-22 10:54 | 13.68064 | 120.62967 | 25129 ft | 408 kts | 210° |
| 2026-04-22 10:54 | 13.65607 | 120.61528 | 25592 ft | 411 kts | 210° |
| 2026-04-22 10:55 | 13.63101 | 120.60062 | 26041 ft | 413 kts | 210° |
| 2026-04-22 10:55 | 13.60567 | 120.58600 | 26476 ft | 416 kts | 208° |
| 2026-04-22 10:55 | 13.57975 | 120.57272 | 26891 ft | 419 kts | 205° |
| 2026-04-22 10:55 | 13.55325 | 120.55995 | 27308 ft | 421 kts | 205° |
| 2026-04-22 10:56 | 13.52630 | 120.54705 | 27716 ft | 423 kts | 205° |
| 2026-04-22 10:56 | 13.49976 | 120.53433 | 28091 ft | 425 kts | 205° |
| 2026-04-22 10:56 | 13.47276 | 120.52136 | 28456 ft | 428 kts | 205° |
| 2026-04-22 10:56 | 13.44548 | 120.50824 | 28807 ft | 430 kts | 205° |
| 2026-04-22 10:57 | 13.41845 | 120.49522 | 29139 ft | 432 kts | 205° |
| 2026-04-22 10:57 | 13.39098 | 120.48198 | 29470 ft | 433 kts | 205° |
| 2026-04-22 10:57 | 13.36345 | 120.46871 | 29791 ft | 435 kts | 205° |
| 2026-04-22 10:57 | 13.33581 | 120.45541 | 30087 ft | 437 kts | 205° |
| 2026-04-22 10:58 | 13.30801 | 120.44206 | 30370 ft | 439 kts | 205° |
| 2026-04-22 10:58 | 13.28043 | 120.42888 | 30649 ft | 440 kts | 205° |
| 2026-04-22 10:58 | 13.25248 | 120.41552 | 30916 ft | 442 kts | 205° |
| 2026-04-22 10:58 | 13.22450 | 120.40213 | 31234 ft | 442 kts | 205° |
| 2026-04-22 10:59 | 13.19655 | 120.38875 | 31606 ft | 440 kts | 205° |
| 2026-04-22 10:59 | 13.16864 | 120.37536 | 31951 ft | 439 kts | 205° |
| 2026-04-22 10:59 | 13.14082 | 120.36202 | 32287 ft | 438 kts | 205° |
| 2026-04-22 10:59 | 13.11308 | 120.34872 | 32614 ft | 437 kts | 204° |
| 2026-04-22 11:00 | 13.08553 | 120.33540 | 32902 ft | 437 kts | 205° |
| 2026-04-22 11:00 | 13.05807 | 120.32211 | 33129 ft | 438 kts | 205° |
| 2026-04-22 11:00 | 13.03028 | 120.30871 | 33335 ft | 440 kts | 205° |
| 2026-04-22 11:00 | 13.00222 | 120.29523 | 33554 ft | 441 kts | 206° |
| 2026-04-22 11:01 | 12.97452 | 120.28194 | 33820 ft | 441 kts | 206° |
| 2026-04-22 11:01 | 12.94642 | 120.26848 | 34151 ft | 439 kts | 207° |
| 2026-04-22 11:01 | 12.91887 | 120.25523 | 34445 ft | 438 kts | 207° |
| 2026-04-22 11:01 | 12.89111 | 120.24190 | 34661 ft | 438 kts | 207° |
| 2026-04-22 11:02 | 12.86258 | 120.22826 | 34849 ft | 439 kts | 207° |
| 2026-04-22 11:02 | 12.83395 | 120.21461 | 35040 ft | 440 kts | 207° |
| 2026-04-22 11:02 | 12.80539 | 120.20099 | 35236 ft | 441 kts | 207° |
| 2026-04-22 11:02 | 12.77737 | 120.18761 | 35422 ft | 441 kts | 207° |
| 2026-04-22 11:03 | 12.75090 | 120.17498 | 35582 ft | 442 kts | 207° |
| 2026-04-22 11:03 | 12.72203 | 120.16118 | 35756 ft | 442 kts | 207° |
| 2026-04-22 11:03 | 12.69392 | 120.14775 | 35853 ft | 444 kts | 207° |
| 2026-04-22 11:04 | 12.63826 | 120.12116 | 35865 ft | 444 kts | 207° |
| 2026-04-22 11:04 | 12.58250 | 120.09454 | 35869 ft | 444 kts | 207° |
| 2026-04-22 11:05 | 12.52684 | 120.06797 | 35870 ft | 444 kts | 207° |
| 2026-04-22 11:05 | 12.47111 | 120.04138 | 35870 ft | 444 kts | 207° |
| 2026-04-22 11:06 | 12.41512 | 120.01468 | 35870 ft | 444 kts | 207° |
| 2026-04-22 11:06 | 12.35944 | 119.98814 | 35870 ft | 444 kts | 207° |
| 2026-04-22 11:07 | 12.30354 | 119.96149 | 35870 ft | 444 kts | 207° |
| 2026-04-22 11:07 | 12.24780 | 119.93494 | 35870 ft | 444 kts | 207° |
| 2026-04-22 11:08 | 12.19214 | 119.90834 | 35872 ft | 443 kts | 207° |
| 2026-04-22 11:08 | 12.13643 | 119.88189 | 35870 ft | 444 kts | 207° |
| 2026-04-22 11:09 | 12.08073 | 119.85541 | 35870 ft | 444 kts | 207° |
| 2026-04-22 11:09 | 12.02492 | 119.82888 | 35870 ft | 444 kts | 207° |
| 2026-04-22 11:10 | 11.96874 | 119.80218 | 35870 ft | 444 kts | 207° |
| 2026-04-22 11:10 | 11.91296 | 119.77568 | 35870 ft | 444 kts | 207° |
| 2026-04-22 11:11 | 11.85733 | 119.74934 | 35869 ft | 444 kts | 207° |
| 2026-04-22 11:11 | 11.80277 | 119.72353 | 35870 ft | 444 kts | 207° |
| 2026-04-22 11:12 | 11.74599 | 119.69656 | 35870 ft | 444 kts | 207° |
| 2026-04-22 11:12 | 11.68953 | 119.66985 | 35869 ft | 444 kts | 206° |
| 2026-04-22 11:13 | 11.63347 | 119.64393 | 35807 ft | 443 kts | 206° |
| 2026-04-22 11:13 | 11.60512 | 119.63084 | 35197 ft | 447 kts | 206° |
| 2026-04-22 11:13 | 11.57646 | 119.61757 | 34183 ft | 456 kts | 206° |
| 2026-04-22 11:13 | 11.54747 | 119.60414 | 33306 ft | 461 kts | 206° |
| 2026-04-22 11:14 | 11.51852 | 119.59074 | 32584 ft | 461 kts | 206° |
| 2026-04-22 11:14 | 11.48907 | 119.57711 | 31913 ft | 460 kts | 206° |
| 2026-04-22 11:14 | 11.46020 | 119.56373 | 31264 ft | 458 kts | 206° |
| 2026-04-22 11:14 | 11.43133 | 119.55035 | 30626 ft | 456 kts | 206° |
| 2026-04-22 11:15 | 11.40250 | 119.53700 | 30188 ft | 449 kts | 206° |
| 2026-04-22 11:15 | 11.37417 | 119.52386 | 29771 ft | 443 kts | 206° |
| 2026-04-22 11:15 | 11.34629 | 119.51093 | 29352 ft | 437 kts | 206° |
| 2026-04-22 11:15 | 11.31920 | 119.49837 | 28939 ft | 431 kts | 206° |
| 2026-04-22 11:16 | 11.29178 | 119.48567 | 28518 ft | 426 kts | 206° |
| 2026-04-22 11:16 | 11.26526 | 119.47339 | 28108 ft | 421 kts | 206° |
| 2026-04-22 11:16 | 11.23890 | 119.46118 | 27699 ft | 416 kts | 206° |
| 2026-04-22 11:16 | 11.21262 | 119.44901 | 27290 ft | 411 kts | 206° |
| 2026-04-22 11:17 | 11.18676 | 119.43703 | 26884 ft | 407 kts | 206° |
| 2026-04-22 11:17 | 11.16132 | 119.42526 | 26485 ft | 403 kts | 206° |
| 2026-04-22 11:17 | 11.13588 | 119.41348 | 26080 ft | 399 kts | 206° |
| 2026-04-22 11:17 | 11.11080 | 119.40187 | 25683 ft | 395 kts | 206° |
| 2026-04-22 11:18 | 11.08598 | 119.39039 | 25287 ft | 391 kts | 206° |
| 2026-04-22 11:18 | 11.06145 | 119.37904 | 24889 ft | 388 kts | 206° |
| 2026-04-22 11:18 | 11.03674 | 119.36761 | 24490 ft | 384 kts | 206° |
| 2026-04-22 11:18 | 11.01233 | 119.35632 | 24074 ft | 382 kts | 206° |
| 2026-04-22 11:19 | 10.98855 | 119.34531 | 23647 ft | 380 kts | 206° |
| 2026-04-22 11:19 | 10.96493 | 119.33426 | 23218 ft | 378 kts | 206° |
| 2026-04-22 11:19 | 10.94097 | 119.32305 | 22783 ft | 377 kts | 206° |
| 2026-04-22 11:19 | 10.91729 | 119.31203 | 22354 ft | 375 kts | 206° |
| 2026-04-22 11:20 | 10.89355 | 119.30101 | 21925 ft | 374 kts | 206° |
| 2026-04-22 11:20 | 10.86953 | 119.28995 | 21497 ft | 372 kts | 205° |
| 2026-04-22 11:20 | 10.84588 | 119.27908 | 21085 ft | 370 kts | 205° |
| 2026-04-22 11:20 | 10.82243 | 119.26830 | 20686 ft | 368 kts | 206° |
| 2026-04-22 11:21 | 10.79912 | 119.25758 | 20293 ft | 365 kts | 206° |
| 2026-04-22 11:21 | 10.77629 | 119.24706 | 19910 ft | 362 kts | 206° |
| 2026-04-22 11:21 | 10.75323 | 119.23642 | 19522 ft | 360 kts | 206° |
| 2026-04-22 11:21 | 10.73021 | 119.22581 | 19133 ft | 357 kts | 206° |
| 2026-04-22 11:22 | 10.70793 | 119.21553 | 18755 ft | 355 kts | 206° |
| 2026-04-22 11:22 | 10.68551 | 119.20519 | 18375 ft | 352 kts | 206° |
| 2026-04-22 11:22 | 10.66320 | 119.19490 | 17997 ft | 350 kts | 206° |
| 2026-04-22 11:22 | 10.64091 | 119.18462 | 17618 ft | 347 kts | 206° |
| 2026-04-22 11:23 | 10.61898 | 119.17450 | 17244 ft | 345 kts | 206° |
| 2026-04-22 11:23 | 10.59722 | 119.16446 | 16873 ft | 343 kts | 206° |
| 2026-04-22 11:23 | 10.57555 | 119.15446 | 16503 ft | 340 kts | 206° |
| 2026-04-22 11:23 | 10.55391 | 119.14449 | 16133 ft | 338 kts | 206° |
| 2026-04-22 11:24 | 10.53246 | 119.13459 | 15776 ft | 342 kts | 206° |
| 2026-04-22 11:24 | 10.51068 | 119.12456 | 15394 ft | 339 kts | 206° |
| 2026-04-22 11:24 | 10.48905 | 119.11459 | 15022 ft | 337 kts | 206° |
| 2026-04-22 11:24 | 10.46810 | 119.10496 | 14661 ft | 334 kts | 206° |
| 2026-04-22 11:25 | 10.44698 | 119.09523 | 14296 ft | 332 kts | 206° |
| 2026-04-22 11:25 | 10.42593 | 119.08554 | 13933 ft | 329 kts | 206° |
| 2026-04-22 11:25 | 10.40510 | 119.07595 | 13572 ft | 327 kts | 206° |
| 2026-04-22 11:25 | 10.38457 | 119.06651 | 13216 ft | 325 kts | 206° |
| 2026-04-22 11:26 | 10.36416 | 119.05697 | 12858 ft | 322 kts | 208° |
| 2026-04-22 11:26 | 10.34446 | 119.04606 | 12495 ft | 319 kts | 213° |
| 2026-04-22 11:26 | 10.32591 | 119.03346 | 12132 ft | 316 kts | 217° |
| 2026-04-22 11:26 | 10.30809 | 119.02016 | 11775 ft | 314 kts | 218° |
| 2026-04-22 11:27 | 10.29524 | 119.01046 | 11518 ft | 312 kts | 218° |
| 2026-04-22 11:27 | 10.28003 | 118.99896 | 11214 ft | 310 kts | 217° |
| 2026-04-22 11:27 | 10.26271 | 118.98589 | 10868 ft | 308 kts | 217° |
| 2026-04-22 11:27 | 10.24559 | 118.97301 | 10526 ft | 306 kts | 217° |
| 2026-04-22 11:28 | 10.22864 | 118.96027 | 10185 ft | 304 kts | 217° |
| 2026-04-22 11:28 | 10.21201 | 118.94778 | 10032 ft | 293 kts | 217° |
| 2026-04-22 11:28 | 10.19597 | 118.93577 | 10004 ft | 278 kts | 217° |
| 2026-04-22 11:28 | 10.18058 | 118.92423 | 9771 ft | 276 kts | 217° |
| 2026-04-22 11:29 | 10.16512 | 118.91263 | 9454 ft | 273 kts | 216° |
| 2026-04-22 11:29 | 10.14969 | 118.90146 | 9135 ft | 271 kts | 209° |
| 2026-04-22 11:29 | 10.13192 | 118.89578 | 8805 ft | 269 kts | 183° |
| 2026-04-22 11:29 | 10.11351 | 118.89824 | 8510 ft | 267 kts | 166° |
| 2026-04-22 11:30 | 10.09571 | 118.90358 | 8218 ft | 265 kts | 164° |
| 2026-04-22 11:30 | 10.07801 | 118.90908 | 7925 ft | 262 kts | 164° |
| 2026-04-22 11:30 | 10.06063 | 118.91441 | 7638 ft | 260 kts | 164° |
| 2026-04-22 11:30 | 10.04334 | 118.91964 | 7352 ft | 257 kts | 164° |
| 2026-04-22 11:31 | 10.02605 | 118.92481 | 7063 ft | 255 kts | 164° |
| 2026-04-22 11:31 | 10.00904 | 118.92989 | 6778 ft | 253 kts | 164° |
| 2026-04-22 11:31 | 9.99201 | 118.93494 | 6492 ft | 251 kts | 164° |
| 2026-04-22 11:31 | 9.97538 | 118.93990 | 6213 ft | 249 kts | 164° |
| 2026-04-22 11:32 | 9.95859 | 118.94491 | 5929 ft | 247 kts | 164° |
| 2026-04-22 11:32 | 9.94205 | 118.94984 | 5647 ft | 246 kts | 163° |
| 2026-04-22 11:32 | 9.92563 | 118.95473 | 5363 ft | 245 kts | 163° |
| 2026-04-22 11:32 | 9.90919 | 118.95962 | 5076 ft | 244 kts | 163° |
| 2026-04-22 11:33 | 9.89271 | 118.96451 | 4792 ft | 243 kts | 163° |
| 2026-04-22 11:33 | 9.87641 | 118.96931 | 4510 ft | 243 kts | 163° |
| 2026-04-22 11:33 | 9.86015 | 118.97412 | 4230 ft | 242 kts | 163° |
| 2026-04-22 11:33 | 9.84380 | 118.97897 | 3948 ft | 241 kts | 163° |
| 2026-04-22 11:34 | 9.82777 | 118.98360 | 3669 ft | 240 kts | 166° |
| 2026-04-22 11:34 | 9.81108 | 118.98558 | 3385 ft | 241 kts | 179° |
| 2026-04-22 11:34 | 9.79412 | 118.98390 | 3105 ft | 241 kts | 187° |
| 2026-04-22 11:34 | 9.77759 | 118.98103 | 2829 ft | 241 kts | 188° |
| 2026-04-22 11:35 | 9.76096 | 118.97799 | 2570 ft | 241 kts | 188° |
| 2026-04-22 11:35 | 9.74523 | 118.97273 | 2493 ft | 244 kts | 213° |
| 2026-04-22 11:35 | 9.73462 | 118.95927 | 2496 ft | 248 kts | 250° |
| 2026-04-22 11:35 | 9.73246 | 118.94238 | 2502 ft | 238 kts | 271° |
| 2026-04-22 11:36 | 9.73385 | 118.92588 | 2492 ft | 227 kts | 275° |
| 2026-04-22 11:36 | 9.73533 | 118.91008 | 2493 ft | 217 kts | 273° |
| 2026-04-22 11:36 | 9.73624 | 118.89546 | 2492 ft | 203 kts | 271° |
| 2026-04-22 11:36 | 9.73686 | 118.88139 | 2201 ft | 191 kts | 271° |
| 2026-04-22 11:37 | 9.73738 | 118.86840 | 1964 ft | 179 kts | 271° |
| 2026-04-22 11:37 | 9.73789 | 118.85609 | 1712 ft | 168 kts | 271° |
| 2026-04-22 11:37 | 9.73840 | 118.84433 | 1495 ft | 166 kts | 272° |
| 2026-04-22 11:37 | 9.73892 | 118.83250 | 1280 ft | 166 kts | 272° |
| 2026-04-22 11:38 | 9.73943 | 118.82075 | 1063 ft | 166 kts | 272° |
| 2026-04-22 11:38 | 9.73994 | 118.80905 | 845 ft | 165 kts | 272° |
| 2026-04-22 11:38 | 9.74898 | 118.78869 | 834 ft | 164 kts | 317° |
| 2026-04-22 11:39 | 9.75728 | 118.78085 | 834 ft | 163 kts | 320° |
| 2026-04-22 11:39 | 9.76590 | 118.77309 | 834 ft | 163 kts | 319° |
| 2026-04-22 11:39 | 9.77216 | 118.76361 | 810 ft | 165 kts | 286° |
| 2026-04-22 11:39 | 9.77403 | 118.75202 | 828 ft | 165 kts | 275° |
| 2026-04-22 11:40 | 9.77488 | 118.74029 | 828 ft | 165 kts | 273° |
| 2026-04-22 11:40 | 9.77557 | 118.72848 | 828 ft | 165 kts | 273° |
| 2026-04-22 11:40 | 9.77551 | 118.71686 | 811 ft | 165 kts | 255° |
| 2026-04-22 11:40 | 9.76959 | 118.70717 | 700 ft | 160 kts | 216° |
| 2026-04-22 11:41 | 9.75979 | 118.70224 | 675 ft | 156 kts | 187° |
| 2026-04-22 11:41 | 9.74973 | 118.70353 | 533 ft | 141 kts | 146° |
| 2026-04-22 11:41 | 9.74431 | 118.71110 | 353 ft | 136 kts | 98° |
| 2026-04-22 11:41 | 9.74388 | 118.72073 | 379 ft | 136 kts | 93° |
| 2026-04-22 11:42 | 9.74349 | 118.73023 | 336 ft | 136 kts | 93° |
| 2026-04-22 11:42 | 9.74295 | 118.73969 | 232 ft | 135 kts | 92° |
| 2026-04-22 11:42 | 9.74250 | 118.74934 | 97 ft | 135 kts | 92° |
| 2026-04-22 11:42 | 9.74215 | 118.75723 | 77 ft | 74 kts | 93° |
| 2026-04-22 11:43 | 9.74200 | 118.76055 | 77 ft | 38 kts | 92° |
| 2026-04-22 11:43 | 9.74192 | 118.76256 | 77 ft | 15 kts | 92° |
| 2026-04-22 11:43 | 9.74192 | 118.76311 | 77 ft | 4 kts | 73° |
| 2026-04-22 11:43 | 9.74203 | 118.76342 | 77 ft | 4 kts | 99° |
| 2026-04-22 11:44 | 9.74181 | 118.76340 | 77 ft | 5 kts | 260° |
| 2026-04-22 11:44 | 9.74189 | 118.76297 | 77 ft | 6 kts | 279° |
| 2026-04-22 11:44 | 9.74192 | 118.76247 | 77 ft | 7 kts | 271° |
| 2026-04-22 11:44 | 9.74193 | 118.76189 | 77 ft | 8 kts | 272° |
| 2026-04-22 11:45 | 9.74196 | 118.76125 | 77 ft | 9 kts | 272° |
| 2026-04-22 11:45 | 9.74199 | 118.76056 | 77 ft | 10 kts | 272° |
| 2026-04-22 11:45 | 9.74203 | 118.75981 | 77 ft | 10 kts | 273° |
| 2026-04-22 11:45 | 9.74207 | 118.75903 | 77 ft | 11 kts | 273° |
| 2026-04-22 11:46 | 9.74211 | 118.75818 | 77 ft | 12 kts | 272° |
| 2026-04-22 11:46 | 9.74214 | 118.75730 | 77 ft | 12 kts | 272° |
| 2026-04-22 11:46 | 9.74218 | 118.75640 | 77 ft | 13 kts | 272° |
| 2026-04-22 11:46 | 9.74222 | 118.75547 | 77 ft | 13 kts | 272° |
| 2026-04-22 11:47 | 9.74226 | 118.75455 | 77 ft | 13 kts | 272° |
| 2026-04-22 11:47 | 9.74230 | 118.75357 | 77 ft | 13 kts | 272° |
| 2026-04-22 11:47 | 9.74237 | 118.75276 | 77 ft | 9 kts | 290° |
| 2026-04-22 11:47 | 9.74296 | 118.75252 | 77 ft | 10 kts | 5° |
| 2026-04-22 11:48 | 9.74340 | 118.75255 | 77 ft | 4 kts | 3° |
| 2026-04-22 11:48 | 9.74379 | 118.75256 | 77 ft | 5 kts | 349° |
| 2026-04-22 11:48 | 9.74403 | 118.75227 | 77 ft | 6 kts | 286° |
| 2026-04-22 11:48 | 9.74407 | 118.75183 | 77 ft | 7 kts | 273° |
| 2026-04-22 11:49 | 9.74409 | 118.75134 | 77 ft | 4 kts | 273° |
| 2026-04-22 11:49 | 9.74420 | 118.75112 | 77 ft | 3 kts | 338° |
| 2026-04-22 11:49 | 9.74451 | 118.75115 | 77 ft | 4 kts | 1° |
| 2026-04-22 11:49 | 9.74488 | 118.75116 | 77 ft | 5 kts | 1° |
| 2026-04-22 11:50 | 9.74506 | 118.75117 | 77 ft | 0 kts | 2° |
| 2026-04-22 11:50 | 9.74507 | 118.75117 | 77 ft | 0 kts | 2° |